Terminal Aerodrome Forecast
Issued by NWS Grand Junction, CO

Home | Current Version | Previous Version | Text Only | Print | Product List | Glossary On
Versions: 1 2 3 4 5 6 7 8 9 10 11 12 13 14
000
FTUS45 KGJT 211133
TAFGJT
TAF
KGJT 211133Z 2112/2212 10007KT P6SM BKN070
     FM212100 20013G22KT P6SM BKN250
     FM220200 07012KT P6SM VCSH SCT080 BKN150 WS020/21030KT
     FM220700 07009KT P6SM SCT070 BKN100 WS020/23030KT
     FM221000 05007KT P6SM SCT110 WS020/23025KT=

USA.gov is the U.S. government's official web portal to all federal, state and local government web resources and services.